createdAt,value
2023-03-01T00:01:32.175Z,-3.04
2023-03-01T00:04:00.495Z,-3.05
2023-03-01T00:06:28.908Z,-2.90
2023-03-01T00:08:55.912Z,-2.80
2023-03-01T00:11:27.981Z,-2.85
2023-03-01T00:13:59.068Z,-2.84
2023-03-01T00:16:35.522Z,-2.80
2023-03-01T00:19:03.162Z,-2.74
2023-03-01T00:21:30.292Z,-2.52
2023-03-01T00:23:57.954Z,-2.57
2023-03-01T00:26:26.664Z,-2.55
2023-03-01T00:28:54.703Z,-2.65
2023-03-01T00:31:24.907Z,-2.52
2023-03-01T00:33:59.889Z,-2.42
2023-03-01T00:36:30.826Z,-2.43
2023-03-01T00:38:58.183Z,-2.35
2023-03-01T00:41:27.588Z,-2.32
2023-03-01T00:43:54.744Z,-2.23
2023-03-01T00:46:26.283Z,-2.24
2023-03-01T00:48:53.280Z,-2.18
2023-03-01T00:51:27.345Z,-2.06
2023-03-01T00:53:57.783Z,-2.01
2023-03-01T00:56:24.986Z,-2.08
2023-03-01T00:58:52.070Z,-1.93
2023-03-01T01:01:23.527Z,-1.91
2023-03-01T01:03:57.431Z,-1.81
2023-03-01T01:06:31.265Z,-1.66
2023-03-01T01:08:58.343Z,-1.72
2023-03-01T01:11:27.681Z,-1.72
2023-03-01T01:13:55.530Z,-1.78
2023-03-01T01:16:25.656Z,-1.71
2023-03-01T01:18:53.185Z,-1.59
2023-03-01T01:21:23.030Z,-1.50
2023-03-01T01:23:50.791Z,-1.49
2023-03-01T01:26:25.245Z,-1.40
2023-03-01T01:28:52.811Z,-1.37
2023-03-01T01:31:21.013Z,-1.26
2023-03-01T01:33:48.094Z,-1.26
2023-03-01T01:36:14.971Z,-1.25
2023-03-01T01:38:43.501Z,-1.26
2023-03-01T01:41:14.968Z,-1.21
2023-03-01T01:43:45.573Z,-1.17
2023-03-01T01:46:34.144Z,-1.09
2023-03-01T01:49:05.925Z,-1.17
2023-03-01T01:51:41.943Z,-1.06
2023-03-01T01:54:29.352Z,-1.09
2023-03-01T01:57:03.136Z,-1.02
2023-03-01T01:59:33.406Z,-1.15
2023-03-01T02:02:03.189Z,-1.02
2023-03-01T02:04:32.498Z,-0.95
2023-03-01T02:07:10.572Z,-0.95
2023-03-01T02:09:37.607Z,-0.97
2023-03-01T02:12:05.709Z,-1.00
2023-03-01T02:14:32.529Z,-0.89
2023-03-01T02:16:59.366Z,-0.94
2023-03-01T02:19:51.972Z,-0.87
2023-03-01T02:22:36.211Z,-0.86
2023-03-01T02:25:52.505Z,-0.81
2023-03-01T02:28:42.361Z,-0.83
2023-03-01T02:31:30.215Z,-0.85
2023-03-01T02:33:58.430Z,-0.81
2023-03-01T02:39:03.046Z,-0.73
2023-03-01T02:41:33.851Z,-0.77
2023-03-01T02:44:00.613Z,-0.74
2023-03-01T02:46:27.544Z,-0.74
2023-03-01T02:48:57.813Z,-0.78
2023-03-01T02:51:58.042Z,-0.64
2023-03-01T02:54:55.544Z,-0.63
2023-03-01T02:57:24.835Z,-0.66
2023-03-01T02:59:53.934Z,-0.70
2023-03-01T03:02:37.846Z,-0.56
2023-03-01T03:05:18.787Z,-0.54
2023-03-01T03:07:48.397Z,-0.56
2023-03-01T03:10:25.581Z,-0.66
2023-03-01T03:12:58.960Z,-0.60
2023-03-01T03:15:28.226Z,-0.55
2023-03-01T03:17:55.240Z,-0.59
2023-03-01T03:20:25.485Z,-0.52
2023-03-01T03:22:56.924Z,-0.52
2023-03-01T03:25:24.590Z,-0.57
2023-03-01T03:27:57.912Z,-0.57
2023-03-01T03:30:33.796Z,-0.53
2023-03-01T03:33:00.890Z,-0.47
2023-03-01T03:35:35.047Z,-0.51
2023-03-01T03:38:16.424Z,-0.49
2023-03-01T03:40:53.206Z,-0.47
2023-03-01T03:43:24.442Z,-0.48
2023-03-01T03:45:53.040Z,-0.47
2023-03-01T03:48:20.315Z,-0.47
2023-03-01T03:50:56.049Z,-0.41
2023-03-01T03:53:26.482Z,-0.46
2023-03-01T03:55:54.386Z,-0.46
2023-03-01T03:58:24.752Z,-0.44
2023-03-01T04:00:58.744Z,-0.39
2023-03-01T04:03:27.778Z,-0.43
2023-03-01T04:05:54.867Z,-0.37
2023-03-01T04:08:23.720Z,-0.36
2023-03-01T04:10:53.367Z,-0.37
2023-03-01T04:13:23.546Z,-0.33
2023-03-01T04:15:52.080Z,-0.29
2023-03-01T04:18:21.650Z,-0.29
2023-03-01T04:20:49.112Z,-0.26
2023-03-01T04:23:21.852Z,-0.32
2023-03-01T04:25:58.868Z,-0.29
2023-03-01T04:28:30.839Z,-0.22
2023-03-01T04:30:59.756Z,-0.21
2023-03-01T04:33:27.031Z,-0.13
2023-03-01T04:35:54.073Z,-0.13
2023-03-01T04:38:22.417Z,-0.10
2023-03-01T04:40:49.720Z,-0.05
2023-03-01T04:43:16.539Z,-0.11
2023-03-01T04:45:43.837Z,0.02
2023-03-01T04:48:10.677Z,-0.09
2023-03-01T04:50:37.570Z,-0.09
2023-03-01T04:53:04.801Z,-0.18
2023-03-01T04:55:32.719Z,-0.10
2023-03-01T04:58:00.135Z,-0.01
2023-03-01T05:00:27.465Z,0.04
2023-03-01T05:03:01.237Z,0.10
2023-03-01T05:05:40.134Z,-0.04
2023-03-01T05:08:09.268Z,0.05
2023-03-01T05:10:41.828Z,0.02
2023-03-01T05:13:09.210Z,-0.10
2023-03-01T05:15:37.593Z,-0.01
2023-03-01T05:18:04.595Z,0.04
2023-03-01T05:20:31.566Z,0.15
2023-03-01T05:23:00.805Z,0.05
2023-03-01T05:25:28.403Z,0.07
2023-03-01T05:27:55.184Z,0.10
2023-03-01T05:30:22.731Z,0.06
2023-03-01T05:32:56.925Z,0.15
2023-03-01T05:35:24.374Z,0.05
2023-03-01T05:37:52.298Z,0.04
2023-03-01T05:40:25.278Z,0.06
2023-03-01T05:42:57.295Z,0.07
2023-03-01T05:45:26.447Z,0.15
2023-03-01T05:47:55.179Z,0.17
2023-03-01T05:50:26.435Z,0.19
2023-03-01T05:53:00.220Z,0.03
2023-03-01T05:55:29.250Z,-0.38
2023-03-01T05:57:56.679Z,-0.35
2023-03-01T06:00:23.702Z,-0.21
2023-03-01T06:02:51.496Z,-0.07
2023-03-01T06:05:19.010Z,-0.01
2023-03-01T06:07:45.838Z,-0.01
2023-03-01T06:10:14.014Z,0.10
2023-03-01T06:12:42.589Z,0.06
2023-03-01T06:15:11.815Z,-0.15
2023-03-01T06:17:41.632Z,-0.14
2023-03-01T06:20:15.516Z,0.11
2023-03-01T06:22:43.336Z,-0.01
2023-03-01T06:25:13.930Z,-0.35
2023-03-01T06:27:41.172Z,-0.15
2023-03-01T06:30:10.965Z,-0.24
2023-03-01T06:32:38.822Z,-0.14
2023-03-01T06:35:06.582Z,-0.15
2023-03-01T06:37:33.337Z,-0.18
2023-03-01T06:40:00.126Z,-0.22
2023-03-01T06:42:26.928Z,-0.01
2023-03-01T06:44:53.656Z,0.01
2023-03-01T06:47:20.396Z,0.09
2023-03-01T06:49:47.098Z,-0.12
2023-03-01T06:52:13.817Z,-0.34
2023-03-01T06:54:40.553Z,-0.06
2023-03-01T06:57:07.311Z,0.06
2023-03-01T06:59:34.026Z,-0.01
2023-03-01T07:02:00.819Z,-0.14
2023-03-01T07:04:29.665Z,-0.39
2023-03-01T07:06:56.429Z,-0.10
2023-03-01T07:09:24.966Z,0.09
2023-03-01T07:11:51.967Z,0.07
2023-03-01T07:14:18.743Z,0.24
2023-03-01T07:16:45.474Z,0.25
2023-03-01T07:19:12.273Z,0.04
2023-03-01T07:21:39.772Z,0.31
2023-03-01T07:24:09.845Z,0.25
2023-03-01T07:26:37.393Z,0.28
2023-03-01T07:29:07.667Z,0.36
2023-03-01T07:31:34.766Z,0.25
2023-03-01T07:34:01.519Z,0.16
2023-03-01T07:36:28.346Z,0.12
2023-03-01T07:38:56.777Z,-0.10
2023-03-01T07:41:23.593Z,0.07
2023-03-01T07:43:50.317Z,-0.10
2023-03-01T07:46:17.116Z,0.07
2023-03-01T07:48:43.839Z,0.11
2023-03-01T07:51:11.265Z,0.03
2023-03-01T07:53:38.313Z,0.09
2023-03-01T07:56:11.874Z,0.12
2023-03-01T07:58:43.565Z,0.26
2023-03-01T08:01:17.204Z,0.06
2023-03-01T08:03:44.840Z,0.17
2023-03-01T08:06:14.245Z,0.36
2023-03-01T08:08:41.244Z,0.34
2023-03-01T08:11:15.477Z,0.35
2023-03-01T08:13:44.444Z,0.12
2023-03-01T08:16:15.518Z,0.31
2023-03-01T08:18:44.153Z,0.43
2023-03-01T08:21:15.144Z,0.22
2023-03-01T08:23:44.015Z,0.44
2023-03-01T08:26:13.887Z,0.52
2023-03-01T08:28:41.805Z,0.55
2023-03-01T08:31:23.328Z,0.45
2023-03-01T08:33:57.330Z,0.61
2023-03-01T08:36:31.668Z,0.63
2023-03-01T08:38:59.224Z,0.72
2023-03-01T08:41:26.404Z,0.56
2023-03-01T08:43:53.964Z,0.67
2023-03-01T08:46:20.719Z,0.47
2023-03-01T08:48:50.233Z,0.62
2023-03-01T08:51:19.364Z,0.39
2023-03-01T08:53:46.634Z,0.51
2023-03-01T08:56:14.346Z,0.11
2023-03-01T08:58:41.321Z,0.22
2023-03-01T09:01:10.015Z,0.23
2023-03-01T09:03:37.287Z,0.35
2023-03-01T09:06:06.533Z,0.14
2023-03-01T09:08:37.657Z,0.27
2023-03-01T09:11:07.138Z,0.12
2023-03-01T09:13:34.121Z,0.09
2023-03-01T09:16:03.810Z,0.19
2023-03-01T09:18:30.749Z,0.31
2023-03-01T09:21:09.346Z,0.16
2023-03-01T09:23:39.860Z,0.19
2023-03-01T09:26:09.967Z,0.12
2023-03-01T09:28:42.044Z,0.60
2023-03-01T09:31:09.504Z,0.73
2023-03-01T09:33:36.337Z,0.66
2023-03-01T09:36:11.080Z,0.63
2023-03-01T09:38:37.807Z,0.61
2023-03-01T09:41:12.600Z,0.69
2023-03-01T09:43:56.474Z,0.92
2023-03-01T09:46:25.914Z,0.73
2023-03-01T09:49:11.871Z,0.68
2023-03-01T09:51:38.816Z,0.60
2023-03-01T09:54:07.352Z,0.69
2023-03-01T09:56:53.081Z,0.95
2023-03-01T09:59:58.848Z,0.69
2023-03-01T10:02:49.066Z,0.77
2023-03-01T10:05:53.324Z,1.04
2023-03-01T10:08:47.907Z,1.05
2023-03-01T10:11:25.079Z,1.11
2023-03-01T10:14:31.985Z,0.98
2023-03-01T10:17:05.340Z,1.14
2023-03-01T10:19:38.727Z,1.05
2023-03-01T10:22:24.424Z,0.67
2023-03-01T10:24:53.882Z,0.59
2023-03-01T10:27:37.851Z,0.79
2023-03-01T10:30:24.058Z,0.82
2023-03-01T10:32:54.993Z,0.61
2023-03-01T10:35:29.644Z,0.86
2023-03-01T10:38:08.412Z,1.01
2023-03-01T10:40:37.520Z,0.92
2023-03-01T10:43:07.076Z,0.90
2023-03-01T10:45:40.543Z,0.93
2023-03-01T10:48:18.405Z,0.96
2023-03-01T10:51:18.782Z,1.27
2023-03-01T10:53:52.829Z,0.90
2023-03-01T10:56:19.620Z,0.72
2023-03-01T10:59:05.645Z,0.81
2023-03-01T11:01:36.887Z,0.62
2023-03-01T11:04:06.465Z,0.95
2023-03-01T11:06:41.345Z,1.05
2023-03-01T11:09:22.260Z,1.27
2023-03-01T11:11:57.990Z,1.45
2023-03-01T11:14:28.321Z,1.29
2023-03-01T11:17:04.611Z,1.06
2023-03-01T11:19:32.441Z,1.35
2023-03-01T11:22:21.278Z,1.03
2023-03-01T11:25:07.075Z,1.05
2023-03-01T11:27:42.084Z,1.17
2023-03-01T11:30:21.107Z,1.05
2023-03-01T11:33:02.785Z,1.19
2023-03-01T11:35:30.737Z,1.16
2023-03-01T11:38:26.288Z,1.22
2023-03-01T11:41:26.471Z,1.16
2023-03-01T11:44:02.558Z,1.37
2023-03-01T11:46:32.281Z,1.36
2023-03-01T11:49:30.021Z,1.29
2023-03-01T11:52:08.110Z,1.48
2023-03-01T11:54:51.194Z,1.39
2023-03-01T11:57:42.541Z,1.57
2023-03-01T12:00:39.667Z,1.90
2023-03-01T12:03:35.043Z,2.23
2023-03-01T12:06:45.124Z,1.96
2023-03-01T12:09:39.486Z,2.22
2023-03-01T12:12:43.721Z,2.03
2023-03-01T12:15:25.757Z,2.43
2023-03-01T12:18:03.776Z,2.47
2023-03-01T12:20:49.718Z,2.56
2023-03-01T12:24:22.509Z,2.45
2023-03-01T12:26:59.181Z,2.29
2023-03-01T12:29:58.275Z,2.21
2023-03-01T12:32:36.801Z,2.18
2023-03-01T12:35:53.362Z,2.26
2023-03-01T12:38:38.751Z,2.51
2023-03-01T12:41:44.692Z,2.70
2023-03-01T12:44:51.172Z,2.81
2023-03-01T12:48:12.142Z,3.04
2023-03-01T12:50:49.093Z,3.04
2023-03-01T12:53:28.748Z,3.10
2023-03-01T12:56:13.117Z,3.45
2023-03-01T12:58:56.870Z,3.80
2023-03-01T13:01:58.029Z,4.18
2023-03-01T13:04:46.746Z,3.97
2023-03-01T13:07:54.692Z,4.01
2023-03-01T13:10:33.303Z,4.36
2023-03-01T13:13:09.987Z,4.76
2023-03-01T13:15:38.883Z,4.59
2023-03-01T13:18:26.675Z,3.89
2023-03-01T13:20:58.603Z,3.82
2023-03-01T13:23:34.395Z,4.21
2023-03-01T13:26:12.537Z,4.38
2023-03-01T13:28:45.338Z,4.85
2023-03-01T13:31:32.270Z,5.18
2023-03-01T13:34:08.399Z,5.08
2023-03-01T13:36:38.468Z,5.15
2023-03-01T13:39:24.546Z,5.49
2023-03-01T13:41:54.307Z,5.94
2023-03-01T13:44:39.883Z,6.14
2023-03-01T13:47:14.920Z,6.25
2023-03-01T13:50:04.143Z,6.24
2023-03-01T13:52:52.368Z,6.38
2023-03-01T13:55:28.484Z,6.42
2023-03-01T13:58:00.964Z,6.59
2023-03-01T14:00:39.353Z,6.46
2023-03-01T14:03:13.699Z,6.69
2023-03-01T14:05:45.248Z,6.82
2023-03-01T14:08:29.129Z,7.05
2023-03-01T14:11:14.732Z,7.18
2023-03-01T14:13:59.964Z,6.94
2023-03-01T14:16:50.691Z,7.12
2023-03-01T14:19:34.904Z,7.25
2023-03-01T14:22:17.190Z,7.59
2023-03-01T14:25:31.186Z,7.57
2023-03-01T14:28:04.696Z,7.41
2023-03-01T14:30:40.880Z,7.64
2023-03-01T14:33:27.169Z,7.70
2023-03-01T14:36:14.372Z,7.90
2023-03-01T14:41:16.642Z,8.07
2023-03-01T14:44:01.613Z,7.96
2023-03-01T14:46:37.661Z,8.07
2023-03-01T14:49:15.284Z,8.36
2023-03-01T14:51:51.316Z,8.20
2023-03-01T14:54:27.194Z,8.34
2023-03-01T14:56:58.612Z,8.41
2023-03-01T14:59:25.613Z,8.35
2023-03-01T15:01:54.969Z,8.26
2023-03-01T15:04:24.072Z,8.09
2023-03-01T15:06:56.393Z,7.58
2023-03-01T15:09:23.974Z,7.54
2023-03-01T15:11:50.751Z,7.18
2023-03-01T15:14:44.105Z,7.14
2023-03-01T15:17:44.923Z,7.24
2023-03-01T15:20:22.780Z,7.43
2023-03-01T15:22:49.799Z,7.52
2023-03-01T15:25:28.017Z,7.01
2023-03-01T15:27:56.751Z,6.90
2023-03-01T15:30:41.950Z,7.17
2023-03-01T15:33:48.111Z,7.30
2023-03-01T15:36:40.295Z,7.33
2023-03-01T15:39:26.940Z,7.36
2023-03-01T15:41:53.684Z,7.27
2023-03-01T15:44:43.485Z,7.32
2023-03-01T15:47:32.048Z,7.41
2023-03-01T15:50:01.097Z,7.39
2023-03-01T15:52:40.502Z,7.23
2023-03-01T15:55:24.490Z,7.01
2023-03-01T15:58:01.532Z,7.01
2023-03-01T16:00:29.893Z,7.05
2023-03-01T16:02:57.060Z,7.02
2023-03-01T16:05:28.352Z,6.90
2023-03-01T16:07:55.873Z,6.34
2023-03-01T16:10:23.554Z,6.31
2023-03-01T16:12:53.541Z,6.34
2023-03-01T16:15:24.445Z,6.24
2023-03-01T16:17:51.792Z,6.16
2023-03-01T16:20:27.918Z,5.88
2023-03-01T16:22:55.612Z,5.61
2023-03-01T16:25:22.640Z,5.62
2023-03-01T16:27:51.463Z,5.46
2023-03-01T16:30:22.021Z,5.45
2023-03-01T16:32:50.402Z,5.37
2023-03-01T16:35:21.604Z,5.23
2023-03-01T16:37:49.659Z,5.22
2023-03-01T16:40:22.400Z,5.27
2023-03-01T16:42:51.024Z,5.26
2023-03-01T16:45:24.412Z,5.17
2023-03-01T16:47:55.687Z,5.11
2023-03-01T16:50:23.768Z,5.10
2023-03-01T16:52:50.775Z,5.03
2023-03-01T16:55:17.851Z,5.05
2023-03-01T16:57:44.907Z,5.04
2023-03-01T17:00:14.305Z,4.95
2023-03-01T17:02:42.830Z,4.92
2023-03-01T17:05:12.884Z,4.75
2023-03-01T17:07:40.531Z,4.68
2023-03-01T17:10:10.741Z,4.50
2023-03-01T17:12:38.061Z,4.46
2023-03-01T17:15:06.661Z,4.44
2023-03-01T17:17:33.696Z,4.49
2023-03-01T17:20:01.292Z,4.39
2023-03-01T17:22:29.714Z,4.39
2023-03-01T17:24:56.436Z,4.31
2023-03-01T17:27:25.398Z,4.25
2023-03-01T17:29:52.308Z,4.13
2023-03-01T17:32:19.454Z,4.17
2023-03-01T17:34:46.605Z,4.12
2023-03-01T17:37:13.332Z,4.07
2023-03-01T17:39:40.082Z,3.98
2023-03-01T17:42:07.319Z,3.80
2023-03-01T17:44:34.832Z,3.81
2023-03-01T17:47:03.443Z,3.72
2023-03-01T17:49:31.237Z,3.75
2023-03-01T17:51:58.451Z,3.66
2023-03-01T17:54:25.248Z,3.63
2023-03-01T17:56:52.580Z,3.69
2023-03-01T17:59:19.724Z,3.67
2023-03-01T18:01:46.956Z,3.66
2023-03-01T18:04:14.065Z,3.72
2023-03-01T18:06:41.059Z,3.64
2023-03-01T18:09:08.314Z,3.63
2023-03-01T18:11:36.121Z,3.64
2023-03-01T18:14:04.114Z,3.56
2023-03-01T18:16:32.258Z,3.57
2023-03-01T18:19:00.903Z,3.56
2023-03-01T18:21:30.908Z,3.56
2023-03-01T18:23:59.731Z,3.57
2023-03-01T18:26:28.232Z,3.45
2023-03-01T18:28:58.345Z,3.58
2023-03-01T18:31:26.126Z,3.54
2023-03-01T18:33:55.290Z,3.52
2023-03-01T18:36:33.437Z,3.46
2023-03-01T18:39:03.770Z,3.47
2023-03-01T18:41:30.768Z,3.51
2023-03-01T18:43:57.892Z,3.47
2023-03-01T18:46:26.049Z,3.50
2023-03-01T18:48:54.356Z,3.49
2023-03-01T18:51:27.731Z,3.52
2023-03-01T18:53:56.016Z,3.51
2023-03-01T18:56:22.804Z,3.50
2023-03-01T18:58:50.526Z,3.48
2023-03-01T19:01:28.848Z,3.41
2023-03-01T19:03:56.669Z,3.50
2023-03-01T19:06:25.425Z,3.47
2023-03-01T19:08:53.435Z,3.52
2023-03-01T19:11:20.464Z,3.41
2023-03-01T19:13:47.896Z,3.51
2023-03-01T19:16:18.288Z,3.51
2023-03-01T19:18:54.597Z,3.48
2023-03-01T19:21:25.314Z,3.46
2023-03-01T19:23:52.514Z,3.52
2023-03-01T19:26:22.595Z,3.49
2023-03-01T19:28:50.043Z,3.55
2023-03-01T19:31:23.608Z,3.51
2023-03-01T19:33:51.387Z,3.52
2023-03-01T19:36:21.447Z,3.51
2023-03-01T19:38:49.014Z,3.50
2023-03-01T19:41:18.113Z,3.46
2023-03-01T19:43:47.078Z,3.50
2023-03-01T19:46:15.204Z,3.52
2023-03-01T19:48:44.584Z,3.35
2023-03-01T19:51:12.458Z,3.38
2023-03-01T19:53:40.717Z,3.44
2023-03-01T19:56:08.844Z,3.40
2023-03-01T19:58:36.458Z,3.25
2023-03-01T20:01:03.365Z,3.33
2023-03-01T20:03:35.862Z,3.28
2023-03-01T20:06:13.372Z,3.27
2023-03-01T20:08:40.129Z,3.30
2023-03-01T20:11:10.719Z,3.36
2023-03-01T20:13:37.799Z,3.35
2023-03-01T20:16:06.043Z,3.39
2023-03-01T20:18:33.625Z,3.38
2023-03-01T20:21:00.479Z,3.45
2023-03-01T20:23:30.251Z,3.35
2023-03-01T20:26:08.083Z,3.25
2023-03-01T20:28:36.973Z,3.13
2023-03-01T20:31:11.035Z,2.92
2023-03-01T20:33:38.476Z,3.07
2023-03-01T20:36:07.504Z,3.09
2023-03-01T20:38:34.971Z,3.15
2023-03-01T20:41:08.755Z,3.27
2023-03-01T20:43:36.169Z,2.97
2023-03-01T20:46:08.305Z,2.87
2023-03-01T20:48:35.088Z,2.89
2023-03-01T20:51:06.699Z,3.02
2023-03-01T20:53:33.702Z,2.99
2023-03-01T20:56:09.240Z,2.99
2023-03-01T20:58:36.492Z,2.77
2023-03-01T21:01:05.254Z,2.78
2023-03-01T21:03:32.241Z,2.86
2023-03-01T21:06:02.162Z,2.85
2023-03-01T21:08:30.497Z,2.86
2023-03-01T21:10:58.087Z,2.76
2023-03-01T21:13:26.970Z,2.83
2023-03-01T21:16:00.356Z,2.82
2023-03-01T21:18:29.820Z,2.73
2023-03-01T21:21:01.291Z,2.82
2023-03-01T21:23:34.459Z,2.80
2023-03-01T21:26:33.116Z,2.75
2023-03-01T21:29:04.080Z,2.73
2023-03-01T21:31:34.886Z,2.57
2023-03-01T21:34:05.768Z,2.69
2023-03-01T21:36:34.041Z,2.53
2023-03-01T21:39:05.378Z,2.48
2023-03-01T21:41:35.802Z,2.43
2023-03-01T21:44:04.957Z,2.49
2023-03-01T21:46:36.997Z,2.40
2023-03-01T21:49:05.804Z,2.41
2023-03-01T21:51:33.420Z,2.39
2023-03-01T21:54:03.354Z,2.21
2023-03-01T21:56:35.169Z,2.01
2023-03-01T21:59:02.407Z,2.11
2023-03-01T22:01:29.492Z,2.10
2023-03-01T22:03:58.714Z,2.09
2023-03-01T22:06:34.272Z,2.13
2023-03-01T22:09:06.084Z,2.01
2023-03-01T22:11:36.593Z,1.90
2023-03-01T22:14:05.029Z,1.93
2023-03-01T22:16:35.680Z,1.98
2023-03-01T22:19:04.790Z,2.05
2023-03-01T22:21:31.548Z,1.93
2023-03-01T22:23:58.600Z,1.87
2023-03-01T22:26:34.573Z,1.85
2023-03-01T22:29:05.402Z,1.87
2023-03-01T22:31:32.247Z,1.92
2023-03-01T22:33:59.992Z,1.93
2023-03-01T22:36:27.878Z,1.92
2023-03-01T22:39:00.294Z,1.86
2023-03-01T22:41:34.688Z,1.91
2023-03-01T22:44:01.537Z,1.93
2023-03-01T22:46:29.198Z,1.95
2023-03-01T22:48:56.638Z,1.95
2023-03-01T22:51:30.482Z,1.95
2023-03-01T22:53:57.957Z,1.94
2023-03-01T22:56:29.144Z,2.01
2023-03-01T22:58:58.119Z,2.02
2023-03-01T23:01:26.606Z,2.02
2023-03-01T23:03:53.875Z,2.05
2023-03-01T23:06:22.457Z,2.05
2023-03-01T23:08:56.015Z,1.92
2023-03-01T23:11:25.724Z,2.06
2023-03-01T23:13:54.574Z,2.07
2023-03-01T23:16:26.163Z,2.27
2023-03-01T23:18:55.651Z,2.14
2023-03-01T23:21:23.111Z,2.12
2023-03-01T23:23:50.093Z,2.11
2023-03-01T23:26:18.526Z,2.15
2023-03-01T23:28:45.390Z,2.14
2023-03-01T23:31:15.013Z,2.10
2023-03-01T23:33:44.607Z,2.18
2023-03-01T23:36:31.138Z,2.22
2023-03-01T23:39:04.372Z,2.27
2023-03-01T23:41:33.164Z,2.29
2023-03-01T23:44:02.567Z,2.22
2023-03-01T23:46:33.921Z,2.13
2023-03-01T23:49:02.049Z,2.23
2023-03-01T23:51:28.953Z,2.30
2023-03-01T23:54:01.851Z,2.43
2023-03-01T23:56:32.990Z,2.53
2023-03-01T23:59:04.132Z,2.67
